sensor_id;sensor_type;location;lat;lon;timestamp;temperature;humidity
16625;DHT22;8426;48.496;9.098;2023-10-08T07:07:54;15.50;99.90
16625;DHT22;8426;48.496;9.098;2023-10-08T07:12:57;16.40;99.90
16625;DHT22;8426;48.496;9.098;2023-10-08T07:18:01;17.00;99.90
16625;DHT22;8426;48.496;9.098;2023-10-08T07:23:13;17.70;99.90
16625;DHT22;8426;48.496;9.098;2023-10-08T07:28:21;18.20;99.90
16625;DHT22;8426;48.496;9.098;2023-10-08T07:33:27;18.60;99.90
16625;DHT22;8426;48.496;9.098;2023-10-08T07:38:40;18.50;99.90
16625;DHT22;8426;48.496;9.098;2023-10-08T07:43:44;18.90;99.90
16625;DHT22;8426;48.496;9.098;2023-10-08T07:48:56;19.40;99.90
16625;DHT22;8426;48.496;9.098;2023-10-08T07:54:01;20.00;99.90
16625;DHT22;8426;48.496;9.098;2023-10-08T07:59:05;20.80;99.90
16625;DHT22;8426;48.496;9.098;2023-10-08T08:04:11;21.40;99.90
16625;DHT22;8426;48.496;9.098;2023-10-08T08:09:25;21.90;99.90
16625;DHT22;8426;48.496;9.098;2023-10-08T08:14:28;22.50;99.90
16625;DHT22;8426;48.496;9.098;2023-10-08T08:19:32;21.60;99.90
16625;DHT22;8426;48.496;9.098;2023-10-08T08:24:37;20.10;99.90
16625;DHT22;8426;48.496;9.098;2023-10-08T08:29:41;19.50;99.90
16625;DHT22;8426;48.496;9.098;2023-10-08T08:34:51;19.40;99.90
16625;DHT22;8426;48.496;9.098;2023-10-08T08:39:57;19.50;99.90
16625;DHT22;8426;48.496;9.098;2023-10-08T08:45:02;21.60;99.90
16625;DHT22;8426;48.496;9.098;2023-10-08T08:50:10;24.70;99.90
16625;DHT22;8426;48.496;9.098;2023-10-08T08:55:16;25.80;98.40
16625;DHT22;8426;48.496;9.098;2023-10-08T09:00:20;26.20;97.40
16625;DHT22;8426;48.496;9.098;2023-10-08T09:05:27;26.40;97.00
16625;DHT22;8426;48.496;9.098;2023-10-08T09:10:38;27.20;96.50
16625;DHT22;8426;48.496;9.098;2023-10-08T09:15:57;27.60;94.70
16625;DHT22;8426;48.496;9.098;2023-10-08T09:21:10;28.00;94.60
16625;DHT22;8426;48.496;9.098;2023-10-08T09:26:17;28.90;94.40
16625;DHT22;8426;48.496;9.098;2023-10-08T09:31:23;29.20;92.70
16625;DHT22;8426;48.496;9.098;2023-10-08T09:36:27;28.60;92.90
16625;DHT22;8426;48.496;9.098;2023-10-08T09:41:38;28.30;92.00
16625;DHT22;8426;48.496;9.098;2023-10-08T09:46:48;27.90;92.50
16625;DHT22;8426;48.496;9.098;2023-10-08T09:51:55;27.20;93.00
16625;DHT22;8426;48.496;9.098;2023-10-08T09:57:02;27.00;94.00
16625;DHT22;8426;48.496;9.098;2023-10-08T10:02:09;27.00;93.60
16625;DHT22;8426;48.496;9.098;2023-10-08T10:07:15;27.00;94.30
16625;DHT22;8426;48.496;9.098;2023-10-08T10:12:24;27.30;91.80
16625;DHT22;8426;48.496;9.098;2023-10-08T10:17:28;27.40;91.90
16625;DHT22;8426;48.496;9.098;2023-10-08T10:22:45;26.60;93.00
16625;DHT22;8426;48.496;9.098;2023-10-08T10:28:24;26.60;93.00
16625;DHT22;8426;48.496;9.098;2023-10-08T10:33:30;26.80;93.20
16625;DHT22;8426;48.496;9.098;2023-10-08T10:38:35;26.80;93.10
16625;DHT22;8426;48.496;9.098;2023-10-08T10:43:43;26.40;93.30
16625;DHT22;8426;48.496;9.098;2023-10-08T10:48:55;26.60;93.30
16625;DHT22;8426;48.496;9.098;2023-10-08T10:54:15;27.10;93.20
16625;DHT22;8426;48.496;9.098;2023-10-08T10:59:27;27.20;92.10
16625;DHT22;8426;48.496;9.098;2023-10-08T11:04:30;27.40;93.00
16625;DHT22;8426;48.496;9.098;2023-10-08T11:09:34;27.10;93.40
16625;DHT22;8426;48.496;9.098;2023-10-08T11:14:43;27.10;92.80
16625;DHT22;8426;48.496;9.098;2023-10-08T11:19:49;27.10;93.70
16625;DHT22;8426;48.496;9.098;2023-10-08T11:24:54;27.10;92.90
16625;DHT22;8426;48.496;9.098;2023-10-08T11:30:01;26.90;93.00
16625;DHT22;8426;48.496;9.098;2023-10-08T11:35:15;26.90;92.80
16625;DHT22;8426;48.496;9.098;2023-10-08T11:40:23;26.60;94.20
16625;DHT22;8426;48.496;9.098;2023-10-08T11:45:33;26.70;93.20
16625;DHT22;8426;48.496;9.098;2023-10-08T11:50:41;26.60;93.10
16625;DHT22;8426;48.496;9.098;2023-10-08T11:55:45;26.50;93.70
16625;DHT22;8426;48.496;9.098;2023-10-08T12:00:51;26.70;93.80
16625;DHT22;8426;48.496;9.098;2023-10-08T12:05:55;26.60;93.50
16625;DHT22;8426;48.496;9.098;2023-10-08T12:11:01;26.60;93.90
16625;DHT22;8426;48.496;9.098;2023-10-08T12:16:07;27.00;93.30
16625;DHT22;8426;48.496;9.098;2023-10-08T12:21:15;26.90;92.10
16625;DHT22;8426;48.496;9.098;2023-10-08T12:26:20;27.00;93.10
16625;DHT22;8426;48.496;9.098;2023-10-08T12:31:25;26.70;93.30
16625;DHT22;8426;48.496;9.098;2023-10-08T12:36:31;26.40;93.10
16625;DHT22;8426;48.496;9.098;2023-10-08T12:41:35;26.30;93.70
16625;DHT22;8426;48.496;9.098;2023-10-08T12:46:42;26.00;94.10
16625;DHT22;8426;48.496;9.098;2023-10-08T12:51:46;25.80;94.30
16625;DHT22;8426;48.496;9.098;2023-10-08T12:56:50;25.70;93.60
16625;DHT22;8426;48.496;9.098;2023-10-08T13:02:01;25.60;95.10
16625;DHT22;8426;48.496;9.098;2023-10-08T13:07:10;25.60;94.00
16625;DHT22;8426;48.496;9.098;2023-10-08T13:12:14;25.70;94.20
16625;DHT22;8426;48.496;9.098;2023-10-08T13:17:20;25.80;94.10
16625;DHT22;8426;48.496;9.098;2023-10-08T13:22:23;26.10;92.60
16625;DHT22;8426;48.496;9.098;2023-10-08T13:27:29;26.50;92.00
16625;DHT22;8426;48.496;9.098;2023-10-08T13:32:35;26.60;92.30
16625;DHT22;8426;48.496;9.098;2023-10-08T13:37:39;26.60;92.20
16625;DHT22;8426;48.496;9.098;2023-10-08T13:42:43;26.60;91.60
16625;DHT22;8426;48.496;9.098;2023-10-08T13:47:48;26.40;92.40
16625;DHT22;8426;48.496;9.098;2023-10-08T13:52:53;26.20;92.50
16625;DHT22;8426;48.496;9.098;2023-10-08T13:57:56;26.30;92.10
16625;DHT22;8426;48.496;9.098;2023-10-08T14:03:02;26.30;92.10
16625;DHT22;8426;48.496;9.098;2023-10-08T14:08:10;26.10;92.80
16625;DHT22;8426;48.496;9.098;2023-10-08T14:13:17;26.30;92.00
16625;DHT22;8426;48.496;9.098;2023-10-08T14:18:23;26.30;92.60
16625;DHT22;8426;48.496;9.098;2023-10-08T14:23:30;26.20;93.30
16625;DHT22;8426;48.496;9.098;2023-10-08T14:28:41;26.20;92.30
16625;DHT22;8426;48.496;9.098;2023-10-08T14:33:54;26.20;93.10
16625;DHT22;8426;48.496;9.098;2023-10-08T14:39:21;26.40;92.80
16625;DHT22;8426;48.496;9.098;2023-10-08T14:44:42;26.30;92.90
16625;DHT22;8426;48.496;9.098;2023-10-08T14:49:47;26.40;91.60
16625;DHT22;8426;48.496;9.098;2023-10-08T14:54:51;26.10;92.30
16625;DHT22;8426;48.496;9.098;2023-10-08T14:59:55;25.90;92.70
16625;DHT22;8426;48.496;9.098;2023-10-08T15:05:03;25.50;93.30
16625;DHT22;8426;48.496;9.098;2023-10-08T15:10:08;25.50;93.00
16625;DHT22;8426;48.496;9.098;2023-10-08T15:15:16;25.30;93.30
16625;DHT22;8426;48.496;9.098;2023-10-08T15:20:22;25.00;93.80
16625;DHT22;8426;48.496;9.098;2023-10-08T15:25:26;24.70;95.00
16625;DHT22;8426;48.496;9.098;2023-10-08T15:30:32;24.60;96.80
16625;DHT22;8426;48.496;9.098;2023-10-08T15:35:37;24.60;96.80
16625;DHT22;8426;48.496;9.098;2023-10-08T15:40:43;24.50;96.90
16625;DHT22;8426;48.496;9.098;2023-10-08T15:45:47;24.30;97.10
16625;DHT22;8426;48.496;9.098;2023-10-08T15:50:52;24.10;97.10
16625;DHT22;8426;48.496;9.098;2023-10-08T15:55:55;23.90;97.90
16625;DHT22;8426;48.496;9.098;2023-10-08T16:00:59;23.70;96.90
16625;DHT22;8426;48.496;9.098;2023-10-08T16:06:04;23.40;97.20
16625;DHT22;8426;48.496;9.098;2023-10-08T16:11:08;23.30;97.50
16625;DHT22;8426;48.496;9.098;2023-10-08T16:16:13;23.10;97.20
16625;DHT22;8426;48.496;9.098;2023-10-08T16:21:19;22.70;97.80
16625;DHT22;8426;48.496;9.098;2023-10-08T16:26:23;22.40;98.30
16625;DHT22;8426;48.496;9.098;2023-10-08T16:31:27;21.90;99.00
16625;DHT22;8426;48.496;9.098;2023-10-08T16:36:33;21.50;99.70
16625;DHT22;8426;48.496;9.098;2023-10-08T16:41:37;21.10;99.90
16625;DHT22;8426;48.496;9.098;2023-10-08T16:46:41;20.70;99.90
16625;DHT22;8426;48.496;9.098;2023-10-08T16:51:48;20.20;99.90
16625;DHT22;8426;48.496;9.098;2023-10-08T16:56:53;19.70;99.90
16625;DHT22;8426;48.496;9.098;2023-10-08T17:01:57;19.20;99.90
16625;DHT22;8426;48.496;9.098;2023-10-08T17:07:02;19.00;99.90
16625;DHT22;8426;48.496;9.098;2023-10-08T17:12:06;18.70;99.90
16625;DHT22;8426;48.496;9.098;2023-10-08T17:17:12;18.40;99.90
16625;DHT22;8426;48.496;9.098;2023-10-08T17:22:17;18.00;99.90
16625;DHT22;8426;48.496;9.098;2023-10-08T17:27:21;17.80;99.90
16625;DHT22;8426;48.496;9.098;2023-10-08T17:32:24;17.40;99.90
16625;DHT22;8426;48.496;9.098;2023-10-08T17:37:30;17.20;99.90
16625;DHT22;8426;48.496;9.098;2023-10-08T17:42:37;16.90;99.90
16625;DHT22;8426;48.496;9.098;2023-10-08T17:47:41;16.70;99.90
16625;DHT22;8426;48.496;9.098;2023-10-08T17:52:46;16.50;99.90
16625;DHT22;8426;48.496;9.098;2023-10-08T17:57:51;16.20;99.90
16625;DHT22;8426;48.496;9.098;2023-10-08T18:02:55;16.20;99.90
16625;DHT22;8426;48.496;9.098;2023-10-08T18:08:00;16.10;99.90
16625;DHT22;8426;48.496;9.098;2023-10-08T18:13:08;16.00;99.90
16625;DHT22;8426;48.496;9.098;2023-10-08T18:18:13;15.80;99.90
16625;DHT22;8426;48.496;9.098;2023-10-08T18:23:18;15.70;99.90
16625;DHT22;8426;48.496;9.098;2023-10-08T18:28:24;15.70;99.90
16625;DHT22;8426;48.496;9.098;2023-10-08T18:33:28;15.50;99.90
16625;DHT22;8426;48.496;9.098;2023-10-08T18:38:33;15.40;99.90
16625;DHT22;8426;48.496;9.098;2023-10-08T18:43:38;15.30;99.90
16625;DHT22;8426;48.496;9.098;2023-10-08T18:48:42;15.20;99.90
16625;DHT22;8426;48.496;9.098;2023-10-08T18:53:50;15.00;99.90
16625;DHT22;8426;48.496;9.098;2023-10-08T18:58:54;14.90;99.90
16625;DHT22;8426;48.496;9.098;2023-10-08T19:03:57;14.90;99.90
16625;DHT22;8426;48.496;9.098;2023-10-08T19:09:03;15.10;99.90
16625;DHT22;8426;48.496;9.098;2023-10-08T19:14:11;15.30;99.90
16625;DHT22;8426;48.496;9.098;2023-10-08T19:19:17;15.60;99.90
16625;DHT22;8426;48.496;9.098;2023-10-08T19:24:23;15.70;99.90
16625;DHT22;8426;48.496;9.098;2023-10-08T19:29:26;15.60;99.90
16625;DHT22;8426;48.496;9.098;2023-10-08T19:34:31;15.40;99.90
16625;DHT22;8426;48.496;9.098;2023-10-08T19:39:36;15.30;99.90
16625;DHT22;8426;48.496;9.098;2023-10-08T19:44:40;15.00;99.90
16625;DHT22;8426;48.496;9.098;2023-10-08T19:49:44;14.70;99.90
16625;DHT22;8426;48.496;9.098;2023-10-08T19:54:48;14.20;99.90
16625;DHT22;8426;48.496;9.098;2023-10-08T19:59:53;14.00;99.90
16625;DHT22;8426;48.496;9.098;2023-10-08T20:04:57;13.80;99.90
16625;DHT22;8426;48.496;9.098;2023-10-08T20:10:02;13.60;99.90
16625;DHT22;8426;48.496;9.098;2023-10-08T20:15:07;13.50;99.90
16625;DHT22;8426;48.496;9.098;2023-10-08T20:20:13;13.50;99.90
16625;DHT22;8426;48.496;9.098;2023-10-08T20:25:28;13.50;99.90
16625;DHT22;8426;48.496;9.098;2023-10-08T20:30:32;13.50;99.90
16625;DHT22;8426;48.496;9.098;2023-10-08T20:35:39;13.40;99.90
16625;DHT22;8426;48.496;9.098;2023-10-08T20:40:45;13.40;99.90
16625;DHT22;8426;48.496;9.098;2023-10-08T20:45:48;13.40;99.90
16625;DHT22;8426;48.496;9.098;2023-10-08T20:50:53;13.30;99.90
16625;DHT22;8426;48.496;9.098;2023-10-08T20:55:58;13.30;99.90
16625;DHT22;8426;48.496;9.098;2023-10-08T21:01:03;13.20;99.90
16625;DHT22;8426;48.496;9.098;2023-10-08T21:06:09;13.00;99.90
16625;DHT22;8426;48.496;9.098;2023-10-08T21:11:15;12.90;99.90
16625;DHT22;8426;48.496;9.098;2023-10-08T21:16:18;12.70;99.90
16625;DHT22;8426;48.496;9.098;2023-10-08T21:21:22;12.60;99.90
16625;DHT22;8426;48.496;9.098;2023-10-08T21:26:27;12.50;99.90
16625;DHT22;8426;48.496;9.098;2023-10-08T21:31:31;12.50;99.90
16625;DHT22;8426;48.496;9.098;2023-10-08T21:36:35;12.50;99.90
16625;DHT22;8426;48.496;9.098;2023-10-08T21:41:39;12.50;99.90
16625;DHT22;8426;48.496;9.098;2023-10-08T21:46:44;12.40;99.90
16625;DHT22;8426;48.496;9.098;2023-10-08T21:51:47;12.30;99.90
16625;DHT22;8426;48.496;9.098;2023-10-08T21:56:52;12.20;99.90
16625;DHT22;8426;48.496;9.098;2023-10-08T22:01:56;12.10;99.90
16625;DHT22;8426;48.496;9.098;2023-10-08T22:07:00;12.10;99.90
16625;DHT22;8426;48.496;9.098;2023-10-08T22:12:09;12.10;99.90
